• Join FlightAware (Why Join?)
  • Login
  • US Flag 
01:09PM EST


 

Airport Tracker/Info


-or-


 

Live Flight TrackerFlight Track Log ✈ EJA922 ✈ 07-Mar-2014 ✈ KICT - KIXD

Flight Track Log - Related Links

Times and Time Zones

All times are in EST time to prevent confusion due to time zone crossing. See the EJA922 flight status page for this flight to view local times or setup timezone preferences in your user account.

Time Position Orientation Groundspeed Altitude Reporting Facility
EST Latitude Longitude Course Direction KTS MPH feet Rate Location/Type
09:09AM 37.6425 -97.4275 187° South 152 175 2,200  Level Kansas City Center
09:10AM 37.5950 -97.4347 187° South 206 237 4,700 2,640 Climbing Kansas City Center
09:10AM 37.5794 -97.3992 119° Southeast 244 281 6,000 3,120 Climbing Kansas City Center
09:11AM 37.5931 -97.3506 71° East 310 357 7,900 3,300 Climbing Kansas City Center
09:11AM 37.6208 -97.3133 47° Northeast 289 333 9,400 1,980 Climbing Kansas City Center
09:12AM 37.6892 -97.2258 45° Northeast 340 391 11,000 780 Climbing Kansas City Center
09:13AM 37.7742 -97.1169 45° Northeast 424 488 11,000  Level Kansas City Center
09:14AM 37.8561 -97.0125 45° Northeast 432 497 11,000  Level Kansas City Center
09:15AM 37.9408 -96.9033 45° Northeast 421 484 11,000  Level Kansas City Center
09:16AM 38.0103 -96.7819 54° Northeast 408 470 11,000  Level Kansas City Center
09:17AM 38.0700 -96.6447 61° Northeast 423 487 11,000 -60 Level Kansas City Center
09:18AM 38.1281 -96.5119 61° Northeast 413 475 10,900 -60 Descending Kansas City Center
09:19AM 38.1808 -96.3911 61° Northeast 409 471 10,900  Level Kansas City Center
09:20AM 38.2331 -96.2706 61° Northeast 410 472 10,900  Level Kansas City Center
09:21AM 38.2964 -96.1264 61° Northeast 415 478 10,900  Level Kansas City Center
09:22AM 38.3497 -96.0019 61° Northeast 416 479 10,900  Level Kansas City Center
09:23AM 38.4136 -95.8572 61° Northeast 419 482 10,900  Level Kansas City Center
09:24AM 38.4675 -95.7336 61° Northeast 419 482 10,900  Level Kansas City Center
09:26AM 38.5300 -95.5897 61° Northeast 418 481 10,900 -300 Level Kansas City Center
09:27AM 38.5772 -95.4806 61° Northeast 362 417 10,300 -1,440 Descending Kansas City Center
09:28AM 38.6367 -95.3861 51° Northeast 306 352 8,000 -1,980 Descending Kansas City Center
09:29AM 38.6850 -95.3103 51° Northeast 292 336 6,300 -1,500 Descending Kansas City Center
09:30AM 38.7325 -95.2353 51° Northeast 288 331 5,000 -1,440 Descending Kansas City Center
09:31AM 38.7886 -95.1494 50° Northeast 285 328 3,400 -1,020 Descending Kansas City Center
09:32AM 38.8353 -95.0797 49° Northeast 279 321 3,000 -300 Descending Kansas City Center
09:33AM 38.8856 -95.0031 50° Northeast 263 303 2,800 -300 Descending Kansas City Center
09:34AM 38.8931 -94.9358 82° East 220 253 2,400 -480 Descending Kansas City Center
09:35AM 38.8700 -94.8906 123° Southeast 166 191 1,900 -600 Descending Kansas City Center
09:36AM 38.8397 -94.8914 181° South 127 146 1,200 -720 Descending Kansas City Center